Time;durP1;ratioP1;P1;durP2;ratioP2;P2;SDS_P1;SDS_P2;PMS_P1;PMS_P2;Temp;Humidity;BMP_temperature;BMP_pressure;BME280_temperature;BME280_humidity;BME280_pressure;Samples;Min_cycle;Max_cycle;Signal;HPM_P1;HPM_P2
2023/09/01 00:00:06;;;;;;;6.20;2.70;;;16.60;99.90;;;;;;5028549;28;20034;-40
2023/09/01 00:02:32;;;;;;;6.68;2.70;;;17.00;99.90;;;;;;5021985;28;20037;-37
2023/09/01 00:04:57;;;;;;;6.65;2.85;;;16.90;99.90;;;;;;5030115;28;20373;-39
2023/09/01 00:07:23;;;;;;;6.43;2.65;;;16.90;99.90;;;;;;5030373;28;20037;-39
2023/09/01 00:09:50;;;;;;;5.93;2.70;;;16.40;99.90;;;;;;5030945;28;20043;-39
2023/09/01 00:12:16;;;;;;;8.38;2.97;;;17.50;99.90;;;;;;5029640;28;20072;-36
2023/09/01 00:14:42;;;;;;;10.23;3.10;;;17.10;99.90;;;;;;5029930;28;20036;-38
2023/09/01 00:17:08;;;;;;;5.50;2.80;;;;;;;;;;5029707;28;20029;-40
2023/09/01 00:19:38;;;;;;;5.95;3.03;;;16.10;99.90;;;;;;5029241;28;20453;-38
2023/09/01 00:22:05;;;;;;;6.40;2.83;;;17.00;99.90;;;;;;5028710;28;20089;-38
2023/09/01 00:24:32;;;;;;;6.05;2.72;;;16.70;99.90;;;;;;5029176;28;20064;-38
2023/09/01 00:26:58;;;;;;;6.10;2.85;;;;;;;;;;5024955;28;20107;-35
2023/09/01 00:29:24;;;;;;;6.85;2.40;;;16.80;99.90;;;;;;5027500;28;20052;-36
2023/09/01 00:31:50;;;;;;;13.00;3.20;;;16.90;99.90;;;;;;5026673;28;20033;-40
2023/09/01 00:34:15;;;;;;;5.97;2.58;;;17.00;99.90;;;;;;5027984;28;20124;-38
2023/09/01 00:36:41;;;;;;;5.70;2.70;;;17.00;99.90;;;;;;5024369;28;20120;-38
2023/09/01 00:39:08;;;;;;;7.95;3.17;;;16.00;99.90;;;;;;5029696;28;20025;-39
2023/09/01 00:41:34;;;;;;;6.43;2.50;;;16.80;99.90;;;;;;5026179;28;20037;-36
2023/09/01 00:44:00;;;;;;;6.32;2.70;;;16.40;99.90;;;;;;5027756;28;20061;-38
2023/09/01 00:46:26;;;;;;;7.32;3.25;;;;;;;;;;5023622;28;20190;-39
2023/09/01 00:48:52;;;;;;;7.30;2.60;;;16.80;99.90;;;;;;5029179;28;20033;-36
2023/09/01 00:51:17;;;;;;;8.00;2.80;;;16.50;99.90;;;;;;5028548;28;20037;-39
2023/09/01 00:53:43;;;;;;;5.70;2.38;;;16.60;99.90;;;;;;5023384;28;20064;-38
2023/09/01 00:56:09;;;;;;;5.80;2.50;;;;;;;;;;5024648;28;20037;-37
2023/09/01 00:58:35;;;;;;;8.45;2.80;;;14.60;99.90;;;;;;5028871;28;20048;-36
2023/09/01 01:01:04;;;;;;;5.65;2.88;;;16.50;99.90;;;;;;5024408;28;20041;-36
2023/09/01 01:03:33;;;;;;;6.10;2.50;;;15.90;99.90;;;;;;5025321;28;20041;-41
2023/09/01 01:06:29;;;;;;;5.50;2.70;;;16.00;99.90;;;;;;5028780;28;20091;-39
2023/09/01 01:09:39;;;;;;;5.78;2.50;;;16.60;99.90;;;;;;5024358;28;20476;-37
2023/09/01 01:12:20;;;;;;;5.78;2.60;;;16.30;99.90;;;;;;4995424;28;20442;-36
2023/09/01 01:14:48;;;;;;;5.78;2.60;;;16.80;99.90;;;;;;5022507;28;20087;-36
2023/09/01 01:17:18;;;;;;;6.00;2.72;;;15.90;99.90;;;;;;5020002;28;20057;-36
2023/09/01 01:19:50;;;;;;;5.55;2.63;;;16.30;99.90;;;;;;5026247;28;20026;-37
2023/09/01 01:22:39;;;;;;;6.30;3.08;;;16.80;99.90;;;;;;5026206;28;20083;-39
2023/09/01 01:25:07;;;;;;;5.40;2.70;;;15.70;99.90;;;;;;5025469;28;20037;-37
2023/09/01 01:27:32;;;;;;;5.63;2.60;;;16.60;99.90;;;;;;5027970;28;20041;-39
2023/09/01 01:29:58;;;;;;;5.63;2.75;;;15.80;99.90;;;;;;5024994;28;20087;-38
2023/09/01 01:32:24;;;;;;;7.68;2.92;;;16.70;99.90;;;;;;5026336;28;20037;-39
2023/09/01 01:35:16;;;;;;;5.93;2.80;;;;;;;;;;5024855;28;20037;-35
2023/09/01 01:37:50;;;;;;;6.15;2.40;;;16.70;99.90;;;;;;5020961;28;20049;-36
2023/09/01 01:40:18;;;;;;;5.47;2.58;;;;;;;;;;5026551;28;20041;-39
2023/09/01 01:42:48;;;;;;;7.10;2.90;;;15.90;99.90;;;;;;5026791;28;20042;-39
2023/09/01 01:45:16;;;;;;;6.18;2.40;;;16.20;99.90;;;;;;5020089;28;20571;-39
2023/09/01 01:47:42;;;;;;;5.50;2.83;;;15.60;99.90;;;;;;5028291;28;20110;-37
2023/09/01 01:50:08;;;;;;;5.55;2.60;;;15.90;99.90;;;;;;5024248;28;20029;-39
2023/09/01 01:52:34;;;;;;;6.45;3.10;;;16.70;99.90;;;;;;5026692;28;20045;-38
2023/09/01 01:55:00;;;;;;;6.38;2.85;;;16.20;99.90;;;;;;5028044;28;20033;-35
2023/09/01 01:57:26;;;;;;;7.57;3.00;;;15.70;99.90;;;;;;5029259;28;20050;-37
2023/09/01 01:59:52;;;;;;;5.93;2.83;;;16.50;99.90;;;;;;5028964;28;20035;-37
2023/09/01 02:02:17;;;;;;;5.22;2.42;;;16.70;99.90;;;;;;5028733;28;20518;-41
2023/09/01 02:04:43;;;;;;;6.00;2.40;;;16.30;99.90;;;;;;5028678;28;20053;-36
2023/09/01 02:07:09;;;;;;;5.45;2.20;;;16.20;99.90;;;;;;5027923;28;20372;-36
2023/09/01 02:09:35;;;;;;;5.53;2.13;;;15.90;99.90;;;;;;5020715;28;20049;-37
2023/09/01 02:12:01;;;;;;;5.55;1.90;;;16.20;99.90;;;;;;5013423;28;20042;-39
2023/09/01 02:14:26;;;;;;;4.32;1.70;;;16.50;99.90;;;;;;5020747;28;20080;-36
2023/09/01 02:16:52;;;;;;;4.80;1.60;;;16.10;99.90;;;;;;5022530;28;20411;-38
2023/09/01 02:19:17;;;;;;;3.75;1.40;;;15.50;99.90;;;;;;5025469;28;20033;-37
2023/09/01 02:21:45;;;;;;;4.07;1.55;;;;;;;;;;5022275;28;20096;-39
2023/09/01 02:24:10;;;;;;;4.15;1.73;;;15.40;99.90;;;;;;5020537;28;20061;-38
2023/09/01 02:26:36;;;;;;;4.68;1.60;;;16.50;99.90;;;;;;5025818;28;20441;-35
2023/09/01 02:29:04;;;;;;;3.13;1.20;;;16.40;99.90;;;;;;5027203;28;20025;-37
2023/09/01 02:31:31;;;;;;;3.60;1.40;;;;;;;;;;5026255;28;20049;-35
2023/09/01 02:33:57;;;;;;;3.45;1.40;;;15.70;99.90;;;;;;5028449;28;20599;-38
2023/09/01 02:36:28;;;;;;;4.10;1.30;;;;;;;;;;5028631;28;20037;-38
2023/09/01 02:38:54;;;;;;;3.38;1.30;;;;;;;;;;5029095;28;20037;-37
2023/09/01 02:41:20;;;;;;;3.60;1.35;;;15.90;99.90;;;;;;5030647;28;20483;-38
2023/09/01 02:43:46;;;;;;;5.57;1.27;;;16.50;99.90;;;;;;5030367;28;20059;-37
2023/09/01 02:46:12;;;;;;;3.45;1.30;;;;;;;;;;5032008;28;20511;-38
2023/09/01 02:48:39;;;;;;;3.67;1.10;;;16.50;99.90;;;;;;5031027;28;20388;-38
2023/09/01 02:51:05;;;;;;;3.25;1.20;;;15.80;99.90;;;;;;5032117;28;20044;-39
2023/09/01 02:53:31;;;;;;;3.30;1.20;;;16.10;99.90;;;;;;5031358;28;20095;-38
2023/09/01 02:55:57;;;;;;;3.70;1.10;;;15.80;99.90;;;;;;5032187;28;20037;-35
2023/09/01 02:58:24;;;;;;;3.70;1.42;;;16.00;99.90;;;;;;5029618;28;20037;-41
2023/09/01 03:00:50;;;;;;;4.07;1.45;;;15.30;99.90;;;;;;5028000;28;20029;-36
2023/09/01 03:03:15;;;;;;;3.78;1.50;;;15.30;99.90;;;;;;5029715;28;20495;-35
2023/09/01 03:05:41;;;;;;;9.93;2.00;;;15.70;99.90;;;;;;5030311;28;20029;-35
2023/09/01 03:08:07;;;;;;;4.05;1.50;;;15.80;99.90;;;;;;5028908;28;20092;-37
2023/09/01 03:10:32;;;;;;;5.05;1.73;;;15.30;99.90;;;;;;5028822;28;20059;-40
2023/09/01 03:12:58;;;;;;;4.32;1.60;;;15.70;99.90;;;;;;5028286;28;20116;-36
2023/09/01 03:15:24;;;;;;;4.35;1.80;;;16.10;99.90;;;;;;5030999;28;20037;-36
2023/09/01 03:17:49;;;;;;;3.80;1.50;;;15.20;99.90;;;;;;5029621;28;20037;-38
2023/09/01 03:20:16;;;;;;;3.60;1.30;;;;;;;;;;5024043;28;20052;-40
2023/09/01 03:22:41;;;;;;;4.47;1.50;;;15.30;99.90;;;;;;5027155;28;20159;-38
2023/09/01 03:25:10;;;;;;;4.80;1.70;;;15.50;99.90;;;;;;5026332;28;20068;-39
2023/09/01 03:27:40;;;;;;;5.07;1.60;;;;;;;;;;5028535;28;20377;-37
2023/09/01 03:30:10;;;;;;;3.88;1.35;;;15.30;99.90;;;;;;5029372;28;20038;-35
2023/09/01 03:32:35;;;;;;;4.10;1.58;;;15.60;99.90;;;;;;5025501;28;20056;-37
2023/09/01 03:35:02;;;;;;;4.32;1.58;;;15.30;99.90;;;;;;5029299;28;20427;-37
2023/09/01 03:37:28;;;;;;;4.82;1.50;;;;;;;;;;5027398;28;20041;-35
2023/09/01 03:39:54;;;;;;;3.60;1.40;;;15.90;99.90;;;;;;5028685;28;20055;-38
2023/09/01 03:42:20;;;;;;;3.40;1.10;;;15.60;99.90;;;;;;5028157;28;20507;-38
2023/09/01 03:44:45;;;;;;;3.65;1.15;;;16.30;99.90;;;;;;5027285;28;20488;-36
2023/09/01 03:47:14;;;;;;;3.80;1.38;;;;;;;;;;5027802;28;20041;-36
2023/09/01 03:49:39;;;;;;;3.42;1.13;;;15.50;99.90;;;;;;5030236;28;20042;-38
2023/09/01 03:52:05;;;;;;;5.03;1.60;;;16.30;99.90;;;;;;5026080;28;20046;-38
2023/09/01 03:54:31;;;;;;;3.60;1.40;;;15.40;99.90;;;;;;5025336;28;20038;-38
2023/09/01 03:56:57;;;;;;;3.25;1.20;;;15.50;99.90;;;;;;5026713;28;20053;-37
2023/09/01 03:59:22;;;;;;;3.63;1.40;;;15.40;99.90;;;;;;5027946;28;20073;-35
2023/09/01 04:01:48;;;;;;;5.38;1.48;;;16.00;99.90;;;;;;5026059;28;22008;-35
2023/09/01 04:04:16;;;;;;;3.45;1.23;;;15.10;99.90;;;;;;5024148;28;20026;-36
2023/09/01 04:06:41;;;;;;;3.83;1.23;;;15.40;99.90;;;;;;5025530;28;20411;-37
2023/09/01 04:09:08;;;;;;;3.47;1.30;;;;;;;;;;5024949;28;20032;-36
2023/09/01 04:11:34;;;;;;;4.00;1.45;;;15.60;99.90;;;;;;5025249;28;20051;-36
2023/09/01 04:14:01;;;;;;;4.38;1.40;;;15.70;99.90;;;;;;5025692;28;20037;-40
2023/09/01 04:16:27;;;;;;;4.97;2.25;;;15.30;99.90;;;;;;5029136;28;20037;-39
2023/09/01 04:18:54;;;;;;;4.43;1.58;;;15.20;99.90;;;;;;5026295;28;20041;-37
2023/09/01 04:21:20;;;;;;;3.55;1.20;;;15.30;99.90;;;;;;5027294;28;20041;-35
2023/09/01 04:23:45;;;;;;;4.03;1.40;;;15.50;99.90;;;;;;5024193;28;20438;-35
2023/09/01 04:26:12;;;;;;;3.67;1.30;;;15.00;99.90;;;;;;5024701;28;20033;-39
2023/09/01 04:28:38;;;;;;;3.38;1.30;;;15.30;99.90;;;;;;5017934;28;20487;-36
2023/09/01 04:31:15;;;;;;;3.63;1.10;;;15.80;99.90;;;;;;5028693;28;20038;-36
2023/09/01 04:33:41;;;;;;;3.38;1.30;;;;;;;;;;5024398;28;20099;-37
2023/09/01 04:36:07;;;;;;;5.95;1.10;;;;;;;;;;5026404;28;20037;-39
2023/09/01 04:38:33;;;;;;;3.17;1.00;;;15.20;99.90;;;;;;5024856;28;20048;-39
2023/09/01 04:41:00;;;;;;;3.30;1.20;;;;;;;;;;5025626;28;20037;-39
2023/09/01 04:43:26;;;;;;;2.95;1.10;;;15.30;99.90;;;;;;5017882;28;20030;-39
2023/09/01 04:45:56;;;;;;;3.67;1.27;;;15.20;99.90;;;;;;5026923;28;20049;-36
2023/09/01 04:48:23;;;;;;;4.05;1.67;;;15.20;99.90;;;;;;5025432;28;20049;-35
2023/09/01 04:50:49;;;;;;;3.63;1.20;;;14.40;99.90;;;;;;5027111;28;20041;-38
2023/09/01 04:53:16;;;;;;;5.45;1.52;;;14.90;99.90;;;;;;5026623;28;20049;-37
2023/09/01 04:55:45;;;;;;;2.85;1.00;;;;;;;;;;5028925;28;20422;-35
2023/09/01 04:58:11;;;;;;;3.63;1.20;;;15.10;99.90;;;;;;5029135;28;20095;-37
2023/09/01 05:00:37;;;;;;;4.10;1.33;;;;;;;;;;5028589;28;20466;-39
2023/09/01 05:03:04;;;;;;;3.22;1.10;;;;;;;;;;5029599;28;20491;-36
2023/09/01 05:05:30;;;;;;;3.67;1.23;;;15.10;99.90;;;;;;5028295;28;20041;-36
2023/09/01 05:07:56;;;;;;;4.22;1.38;;;15.10;99.90;;;;;;5026848;28;20041;-35
2023/09/01 05:10:22;;;;;;;5.57;1.75;;;;;;;;;;5021071;28;20145;-38
2023/09/01 05:12:48;;;;;;;5.07;2.20;;;15.10;99.90;;;;;;5025166;28;20041;-35
2023/09/01 05:15:13;;;;;;;5.40;1.73;;;14.90;99.90;;;;;;5027815;28;20380;-41
2023/09/01 05:17:39;;;;;;;5.03;1.90;;;15.10;99.90;;;;;;5025234;28;20033;-39
2023/09/01 05:20:11;;;;;;;6.28;2.10;;;;;;;;;;5020352;28;20088;-36
2023/09/01 05:22:38;;;;;;;6.68;2.65;;;;;;;;;;5018350;28;20514;-40
2023/09/01 05:25:04;;;;;;;5.82;2.10;;;;;;;;;;5016059;28;20040;-36
2023/09/01 05:27:30;;;;;;;4.80;1.70;;;15.10;99.90;;;;;;5012831;28;20526;-37
2023/09/01 05:29:55;;;;;;;5.03;1.95;;;15.20;99.90;;;;;;5016387;28;20124;-36
2023/09/01 05:32:22;;;;;;;4.53;1.60;;;15.10;99.90;;;;;;5017706;28;20056;-35
2023/09/01 05:34:48;;;;;;;5.55;1.92;;;;;;;;;;5009834;28;20041;-35
2023/09/01 05:37:14;;;;;;;5.13;2.10;;;15.10;99.90;;;;;;5010427;28;20261;-37
2023/09/01 05:39:41;;;;;;;5.05;1.70;;;;;;;;;;5014740;28;20044;-35
2023/09/01 05:42:10;;;;;;;7.47;1.95;;;15.20;99.90;;;;;;5020260;28;20037;-36
2023/09/01 05:44:37;;;;;;;4.30;1.67;;;15.30;99.90;;;;;;5012842;28;20064;-37
2023/09/01 05:47:03;;;;;;;3.90;1.80;;;15.30;99.90;;;;;;5022152;28;20069;-36
2023/09/01 05:49:33;;;;;;;5.88;1.80;;;15.30;99.90;;;;;;5013791;28;20499;-37
2023/09/01 05:51:59;;;;;;;5.40;2.08;;;15.30;99.90;;;;;;5018563;28;20048;-38
2023/09/01 05:54:25;;;;;;;4.22;1.67;;;15.30;99.90;;;;;;5012322;28;20451;-35
2023/09/01 05:56:51;;;;;;;3.80;1.40;;;15.40;99.90;;;;;;5018132;28;20052;-38
2023/09/01 05:59:17;;;;;;;5.00;2.00;;;15.00;99.90;;;;;;5008715;28;20416;-37
2023/09/01 06:01:43;;;;;;;4.35;1.60;;;15.30;99.90;;;;;;5023584;28;20037;-40
2023/09/01 06:04:08;;;;;;;4.35;1.70;;;16.10;99.90;;;;;;5025310;28;20039;-38
2023/09/01 06:06:35;;;;;;;5.15;1.95;;;15.30;99.90;;;;;;5026630;28;20079;-38
2023/09/01 06:09:04;;;;;;;5.40;2.15;;;;;;;;;;5021333;28;20046;-36
2023/09/01 06:11:30;;;;;;;4.40;1.88;;;14.90;99.90;;;;;;5026609;28;20073;-37
2023/09/01 06:13:56;;;;;;;5.40;2.00;;;15.20;99.90;;;;;;5019676;28;20399;-37
2023/09/01 06:16:22;;;;;;;5.30;2.10;;;15.40;99.90;;;;;;5029969;28;20037;-37
2023/09/01 06:18:48;;;;;;;5.95;2.20;;;15.60;99.90;;;;;;5027133;28;20033;-34
2023/09/01 06:21:17;;;;;;;8.70;2.45;;;;;;;;;;5029453;28;20407;-38
2023/09/01 06:23:46;;;;;;;4.72;2.30;;;15.60;1.00;;;;;;5026505;28;20160;-41
2023/09/01 06:26:17;;;;;;;4.72;2.00;;;16.10;1.00;;;;;;5026543;28;20053;-35
2023/09/01 06:28:44;;;;;;;7.05;2.33;;;15.70;1.00;;;;;;5029184;28;20069;-40
2023/09/01 06:31:10;;;;;;;11.15;3.40;;;16.00;1.00;;;;;;5027501;28;20463;-39
2023/09/01 06:33:36;;;;;;;7.10;3.30;;;16.10;1.00;;;;;;5028076;28;20064;-40
2023/09/01 06:36:03;;;;;;;8.93;3.30;;;15.40;1.00;;;;;;5028836;28;20501;-38
2023/09/01 06:38:28;;;;;;;6.80;3.13;;;15.70;1.00;;;;;;5023812;28;20049;-38
2023/09/01 06:40:54;;;;;;;6.30;2.83;;;15.80;1.00;;;;;;5029328;28;20030;-38
2023/09/01 06:43:20;;;;;;;10.50;3.00;;;15.60;1.00;;;;;;5028657;28;20061;-38
2023/09/01 06:45:45;;;;;;;6.88;3.10;;;15.60;1.00;;;;;;5011339;28;20049;-37
2023/09/01 06:48:11;;;;;;;6.80;2.97;;;15.80;1.00;;;;;;5024085;28;20040;-35
2023/09/01 06:50:38;;;;;;;5.32;2.40;;;15.40;1.00;;;;;;5024176;28;20064;-39
2023/09/01 06:53:07;;;;;;;7.03;2.30;;;16.60;1.00;;;;;;5024426;28;20554;-36
2023/09/01 06:55:32;;;;;;;9.52;3.15;;;16.00;1.00;;;;;;5022555;28;20438;-36
2023/09/01 06:57:59;;;;;;;7.00;2.60;;;15.70;1.00;;;;;;5019685;28;20041;-36
2023/09/01 07:00:25;;;;;;;6.03;1.90;;;15.60;1.00;;;;;;5024350;28;20037;-38
2023/09/01 07:02:51;;;;;;;6.50;2.47;;;;;;;;;;5024035;28;20041;-39
2023/09/01 07:05:17;;;;;;;6.15;2.17;;;15.90;1.00;;;;;;5022568;28;20080;-40
2023/09/01 07:07:43;;;;;;;6.63;2.33;;;15.60;1.00;;;;;;5025317;28;20069;-38
2023/09/01 07:10:09;;;;;;;7.45;2.40;;;16.40;1.40;;;;;;5026601;28;20471;-37
2023/09/01 07:12:34;;;;;;;7.10;2.80;;;15.90;5.30;;;;;;5025518;28;20092;-38
2023/09/01 07:15:00;;;;;;;6.40;2.40;;;16.40;8.00;;;;;;5028360;28;20500;-39
2023/09/01 07:17:26;;;;;;;6.90;2.53;;;15.80;10.90;;;;;;5022408;28;20384;-39
2023/09/01 07:19:52;;;;;;;6.50;2.40;;;16.90;16.50;;;;;;5026113;28;20095;-40
2023/09/01 07:22:17;;;;;;;5.28;2.30;;;15.80;21.00;;;;;;5021760;28;20484;-38
2023/09/01 07:24:43;;;;;;;5.38;2.17;;;16.80;26.70;;;;;;5031102;28;20120;-36
2023/09/01 07:27:09;;;;;;;7.30;2.10;;;16.60;28.90;;;;;;5031601;28;20049;-37
2023/09/01 07:29:34;;;;;;;5.40;1.90;;;16.60;36.60;;;;;;5031782;28;20037;-39
2023/09/01 07:32:00;;;;;;;6.68;2.00;;;15.80;40.80;;;;;;5029930;28;20058;-36
2023/09/01 07:34:26;;;;;;;5.15;2.10;;;16.60;42.80;;;;;;5030595;28;20037;-36
2023/09/01 07:36:52;;;;;;;5.05;1.90;;;16.80;50.20;;;;;;5030060;28;20045;-38
2023/09/01 07:39:18;;;;;;;5.10;1.80;;;17.10;54.00;;;;;;5030477;28;20037;-36
2023/09/01 07:41:44;;;;;;;5.78;2.20;;;16.60;52.30;;;;;;5031354;28;20029;-40
2023/09/01 07:44:09;;;;;;;4.80;2.13;;;16.90;63.30;;;;;;5030615;28;20038;-40
2023/09/01 07:46:35;;;;;;;6.18;2.35;;;17.10;66.10;;;;;;5025103;28;20045;-37
2023/09/01 07:49:02;;;;;;;8.00;2.22;;;17.30;66.50;;;;;;5025599;28;20045;-35
2023/09/01 07:51:28;;;;;;;6.30;2.35;;;17.00;72.80;;;;;;5024222;28;20507;-37
2023/09/01 07:53:54;;;;;;;6.20;2.20;;;16.70;75.10;;;;;;5020589;28;20067;-35
2023/09/01 07:56:21;;;;;;;4.80;1.90;;;16.90;81.70;;;;;;5022370;28;20047;-39
2023/09/01 07:58:46;;;;;;;7.10;2.35;;;17.20;87.80;;;;;;5028101;28;20029;-37
2023/09/01 08:01:12;;;;;;;6.35;2.00;;;17.00;90.60;;;;;;5023517;28;20505;-39
2023/09/01 08:03:38;;;;;;;6.05;2.25;;;16.50;91.00;;;;;;5027786;28;20065;-40
2023/09/01 08:06:04;;;;;;;5.03;1.95;;;16.80;93.40;;;;;;5028468;28;20045;-35
2023/09/01 08:08:30;;;;;;;6.68;1.83;;;16.60;94.60;;;;;;5030612;28;20048;-38
2023/09/01 08:10:56;;;;;;;6.60;1.80;;;16.90;95.70;;;;;;5030229;28;20095;-37
2023/09/01 08:13:22;;;;;;;5.63;1.77;;;16.90;97.50;;;;;;5027506;28;20041;-38
2023/09/01 08:15:48;;;;;;;4.30;1.80;;;17.30;99.30;;;;;;5030911;28;20033;-37
2023/09/01 08:18:14;;;;;;;5.18;1.63;;;17.10;98.40;;;;;;5030595;28;20425;-37
2023/09/01 08:20:40;;;;;;;4.20;1.60;;;17.00;99.90;;;;;;5030889;28;20035;-39
2023/09/01 08:23:06;;;;;;;6.90;2.20;;;17.50;99.90;;;;;;5030231;28;20086;-40
2023/09/01 08:25:35;;;;;;;6.25;1.65;;;17.20;99.90;;;;;;5027806;28;20041;-39
2023/09/01 08:28:00;;;;;;;4.47;1.60;;;16.90;99.90;;;;;;5030580;28;20048;-38
2023/09/01 08:30:26;;;;;;;5.78;1.90;;;16.80;99.90;;;;;;5030806;28;20026;-38
2023/09/01 08:32:52;;;;;;;3.63;1.33;;;17.40;99.90;;;;;;5031036;28;20042;-38
2023/09/01 08:35:18;;;;;;;5.75;1.80;;;17.20;99.90;;;;;;5028589;28;20037;-35
2023/09/01 08:37:43;;;;;;;4.50;1.55;;;16.60;99.90;;;;;;5030900;28;20041;-35
2023/09/01 08:40:10;;;;;;;5.88;1.77;;;16.60;99.90;;;;;;5030330;28;20030;-36
2023/09/01 08:42:47;;;;;;;4.88;1.50;;;16.60;99.90;;;;;;5030536;28;20037;-37
2023/09/01 08:45:18;;;;;;;6.10;1.58;;;16.80;99.90;;;;;;5030138;28;20046;-40
2023/09/01 08:47:46;;;;;;;4.95;1.63;;;17.80;99.90;;;;;;5030669;28;20491;-37
2023/09/01 08:50:13;;;;;;;5.78;1.52;;;16.90;99.90;;;;;;5030549;28;20079;-36
2023/09/01 08:52:45;;;;;;;5.18;1.65;;;17.60;99.90;;;;;;5027074;28;20037;-38
2023/09/01 08:55:13;;;;;;;4.95;1.35;;;17.20;99.90;;;;;;5028650;28;20116;-38
2023/09/01 08:57:39;;;;;;;5.22;1.50;;;18.10;99.90;;;;;;5030563;28;20507;-37
2023/09/01 09:00:08;;;;;;;5.22;1.70;;;18.00;99.90;;;;;;5030165;28;20041;-36
2023/09/01 09:02:41;;;;;;;5.07;1.80;;;16.90;99.90;;;;;;5030096;28;20040;-38
2023/09/01 09:05:11;;;;;;;4.60;1.48;;;16.80;99.90;;;;;;5028773;28;20541;-35
2023/09/01 09:07:37;;;;;;;5.18;1.73;;;17.90;99.90;;;;;;5029056;28;20045;-38
2023/09/01 09:10:06;;;;;;;4.72;1.50;;;17.30;99.90;;;;;;5029620;28;20403;-37
2023/09/01 09:12:36;;;;;;;5.47;1.60;;;18.00;99.90;;;;;;5029936;28;20045;-36
2023/09/01 09:15:02;;;;;;;4.00;1.30;;;16.90;99.90;;;;;;5029679;28;20060;-35
2023/09/01 09:17:45;;;;;;;4.35;1.50;;;16.80;99.90;;;;;;5028512;28;20128;-38
2023/09/01 09:20:17;;;;;;;4.80;1.58;;;17.90;99.90;;;;;;5029892;28;20091;-39
2023/09/01 09:23:00;;;;;;;3.97;1.33;;;17.20;99.90;;;;;;5029826;28;20033;-34
2023/09/01 09:25:35;;;;;;;4.57;1.48;;;17.40;99.90;;;;;;5028713;28;20444;-35
2023/09/01 09:28:13;;;;;;;5.28;1.75;;;17.00;99.90;;;;;;5030118;28;20422;-35
2023/09/01 09:30:52;;;;;;;4.43;1.70;;;17.10;99.90;;;;;;5023583;28;20045;-37
2023/09/01 09:33:29;;;;;;;4.88;1.55;;;17.20;99.90;;;;;;5028121;28;20049;-38
2023/09/01 09:35:55;;;;;;;5.60;1.60;;;16.90;99.90;;;;;;5030072;28;20075;-36
2023/09/01 09:38:21;;;;;;;4.20;1.58;;;17.30;99.90;;;;;;5026388;28;20479;-37
2023/09/01 09:40:57;;;;;;;5.15;1.50;;;18.50;99.90;;;;;;5028211;28;20545;-35
2023/09/01 09:43:23;;;;;;;4.80;1.60;;;16.70;99.90;;;;;;5028892;28;20034;-37
2023/09/01 09:45:52;;;;;;;4.18;1.30;;;17.20;99.90;;;;;;5029912;28;20038;-38
2023/09/01 09:48:18;;;;;;;4.85;1.60;;;17.20;99.90;;;;;;5028061;28;20542;-39
2023/09/01 09:50:52;;;;;;;4.30;1.48;;;18.00;99.90;;;;;;5029911;28;20034;-35
2023/09/01 09:53:23;;;;;;;5.20;1.20;;;17.20;99.90;;;;;;5029173;28;20518;-37
2023/09/01 09:55:51;;;;;;;4.60;1.60;;;16.90;99.90;;;;;;5024081;28;20043;-38
2023/09/01 09:58:39;;;;;;;4.88;1.75;;;17.80;99.90;;;;;;5028557;28;20454;-36
2023/09/01 10:01:15;;;;;;;5.20;1.40;;;18.10;99.90;;;;;;5024227;28;20462;-38
2023/09/01 10:03:41;;;;;;;5.20;1.70;;;17.20;99.90;;;;;;5024186;28;20041;-37
2023/09/01 10:06:08;;;;;;;4.63;1.17;;;17.30;99.90;;;;;;5029133;28;20069;-38
2023/09/01 10:08:35;;;;;;;4.53;1.30;;;17.80;99.90;;;;;;5030027;28;20095;-38
2023/09/01 10:11:03;;;;;;;5.28;1.42;;;18.10;99.90;;;;;;5029443;28;20499;-37
2023/09/01 10:13:30;;;;;;;5.50;1.40;;;17.70;99.90;;;;;;5026776;28;20037;-35
2023/09/01 10:15:56;;;;;;;4.38;1.50;;;17.50;99.90;;;;;;5027337;28;20083;-38
2023/09/01 10:18:24;;;;;;;4.65;1.30;;;17.00;99.90;;;;;;5029488;28;20051;-38
2023/09/01 10:20:50;;;;;;;4.20;1.30;;;17.30;99.90;;;;;;5028079;28;20064;-35
2023/09/01 10:23:15;;;;;;;3.83;1.48;;;17.10;99.90;;;;;;5029472;28;20061;-37
2023/09/01 10:25:41;;;;;;;5.03;1.30;;;17.20;99.90;;;;;;5026496;28;20072;-38
2023/09/01 10:28:10;;;;;;;4.32;1.65;;;16.90;99.90;;;;;;5029319;28;20435;-41
2023/09/01 10:30:37;;;;;;;4.28;1.40;;;18.00;99.90;;;;;;5029557;28;20041;-38
2023/09/01 10:33:05;;;;;;;3.60;1.20;;;18.10;99.90;;;;;;5028881;28;20037;-35
2023/09/01 10:35:38;;;;;;;4.97;1.42;;;17.30;99.90;;;;;;5029008;28;20120;-40
2023/09/01 10:38:12;;;;;;;5.75;1.42;;;17.40;99.90;;;;;;5029738;28;20037;-38
2023/09/01 10:40:54;;;;;;;3.97;1.50;;;17.40;99.90;;;;;;5022136;28;20036;-40
2023/09/01 10:43:35;;;;;;;4.07;1.20;;;17.30;97.20;;;;;;5028788;28;20500;-38
2023/09/01 10:46:15;;;;;;;4.70;1.35;;;18.00;99.90;;;;;;5029633;28;20526;-36
2023/09/01 10:49:00;;;;;;;3.95;1.25;;;17.30;99.90;;;;;;5026493;28;20037;-37
2023/09/01 10:51:28;;;;;;;5.40;1.35;;;17.40;99.90;;;;;;5027506;28;20075;-37
2023/09/01 10:53:56;;;;;;;4.60;1.40;;;17.60;99.00;;;;;;5032714;28;20096;-35
2023/09/01 10:56:23;;;;;;;4.20;1.45;;;18.70;99.90;;;;;;5032271;28;20042;-37
2023/09/01 10:58:50;;;;;;;5.05;1.27;;;17.90;99.70;;;;;;5031178;28;20120;-41
2023/09/01 11:01:37;;;;;;;4.80;1.45;;;18.50;98.40;;;;;;5032526;28;20388;-36
2023/09/01 11:04:21;;;;;;;4.03;1.40;;;16.90;85.90;;;;;;5030827;28;20080;-39
2023/09/01 11:06:56;;;;;;;5.85;1.50;;;17.40;97.30;;;;;;5025999;28;20525;-38
2023/09/01 11:09:34;;;;;;;4.70;1.63;;;18.00;95.00;;;;;;5031902;28;20499;-38
2023/09/01 11:12:04;;;;;;;5.10;1.40;;;17.70;91.90;;;;;;5032327;28;20100;-35
2023/09/01 11:14:31;;;;;;;4.88;1.58;;;17.40;91.80;;;;;;5023293;28;20136;-36
2023/09/01 11:17:00;;;;;;;5.50;1.63;;;17.80;90.30;;;;;;5032394;28;20049;-37
2023/09/01 11:19:26;;;;;;;5.13;1.40;;;17.90;85.70;;;;;;5028816;28;20483;-39
2023/09/01 11:21:52;;;;;;;4.95;1.48;;;17.20;82.30;;;;;;5032150;28;20026;-40
2023/09/01 11:24:22;;;;;;;3.97;1.33;;;17.50;78.10;;;;;;5031829;28;20079;-38
2023/09/01 11:26:51;;;;;;;4.38;1.30;;;17.90;79.40;;;;;;5032557;28;20029;-39
2023/09/01 11:29:21;;;;;;;3.75;1.27;;;18.20;72.70;;;;;;5031915;28;20029;-38
2023/09/01 11:31:47;;;;;;;4.55;1.30;;;18.70;76.20;;;;;;5031786;28;20080;-40
2023/09/01 11:34:13;;;;;;;5.38;1.40;;;18.30;72.00;;;;;;5032124;28;20037;-39
2023/09/01 11:36:52;;;;;;;5.90;1.60;;;17.60;66.30;;;;;;5032059;28;20034;-40
2023/09/01 11:39:18;;;;;;;5.18;1.75;;;18.10;71.20;;;;;;5030554;28;20052;-39
2023/09/01 11:41:45;;;;;;;4.22;1.23;;;18.30;62.10;;;;;;5030677;28;20029;-37
2023/09/01 11:44:11;;;;;;;3.95;1.30;;;18.20;60.70;;;;;;5031704;28;20064;-40
2023/09/01 11:46:37;;;;;;;11.20;2.15;;;18.00;55.00;;;;;;5031544;28;20072;-38
2023/09/01 11:49:04;;;;;;;4.20;1.45;;;17.80;54.30;;;;;;5031980;28;20033;-36
2023/09/01 11:51:36;;;;;;;4.47;1.77;;;17.70;53.40;;;;;;5031586;28;20064;-37
2023/09/01 11:54:03;;;;;;;5.35;1.45;;;18.10;52.20;;;;;;5031355;28;20069;-40
2023/09/01 11:56:29;;;;;;;4.97;1.33;;;18.10;44.90;;;;;;5031207;28;20065;-39
2023/09/01 11:58:56;;;;;;;4.15;1.40;;;17.60;42.20;;;;;;5031938;28;20111;-39
2023/09/01 12:01:24;;;;;;;4.55;1.48;;;18.20;41.50;;;;;;5030428;28;20045;-41
2023/09/01 12:03:54;;;;;;;5.03;1.50;;;17.40;39.60;;;;;;5029298;28;20068;-38
2023/09/01 12:06:22;;;;;;;4.88;1.70;;;17.80;17.70;;;;;;5023290;28;20099;-36
2023/09/01 12:08:49;;;;;;;5.35;1.75;;;18.40;35.60;;;;;;5027998;28;20041;-38
2023/09/01 12:11:16;;;;;;;4.20;1.60;;;17.30;32.10;;;;;;5027742;28;20045;-39
2023/09/01 12:13:43;;;;;;;6.57;1.52;;;18.00;29.20;;;;;;5025386;28;20438;-38
2023/09/01 12:16:22;;;;;;;5.30;1.77;;;18.70;23.30;;;;;;5029818;28;20121;-40
2023/09/01 12:18:48;;;;;;;4.85;1.90;;;17.40;32.20;;;;;;5028572;28;20123;-40
2023/09/01 12:21:15;;;;;;;5.10;1.70;;;18.10;27.50;;;;;;5029790;28;20049;-37
2023/09/01 12:23:45;;;;;;;5.13;1.63;;;18.40;24.80;;;;;;5030198;28;20567;-39
2023/09/01 12:26:12;;;;;;;5.65;2.15;;;17.50;27.60;;;;;;5029084;28;20033;-39
2023/09/01 12:28:41;;;;;;;5.65;1.70;;;18.40;25.10;;;;;;5030490;28;20407;-41
2023/09/01 12:31:09;;;;;;;5.57;1.80;;;18.70;24.90;;;;;;5030450;28;20403;-36
2023/09/01 12:33:39;;;;;;;6.30;2.30;;;17.80;17.60;;;;;;5027034;28;20045;-40
2023/09/01 12:36:06;;;;;;;6.57;2.00;;;18.50;22.60;;;;;;5027630;28;20037;-38
2023/09/01 12:38:31;;;;;;;8.05;2.33;;;18.10;16.90;;;;;;5028130;28;20038;-39
2023/09/01 12:40:57;;;;;;;4.40;1.98;;;18.50;14.80;;;;;;5029001;28;20048;-41
2023/09/01 12:43:23;;;;;;;4.43;1.80;;;18.20;15.60;;;;;;5028258;28;20037;-39
2023/09/01 12:45:48;;;;;;;4.53;1.65;;;18.50;17.80;;;;;;5013841;28;20132;-41
2023/09/01 12:48:17;;;;;;;5.22;1.90;;;18.10;16.50;;;;;;5024439;28;20037;-39
2023/09/01 12:50:47;;;;;;;6.80;2.35;;;18.70;16.10;;;;;;5017369;28;20034;-40
2023/09/01 12:53:13;;;;;;;6.40;2.00;;;18.50;22.40;;;;;;5027633;28;20120;-39
2023/09/01 12:55:40;;;;;;;7.32;2.67;;;17.90;16.00;;;;;;5027036;28;20052;-39
2023/09/01 12:58:05;;;;;;;6.13;2.00;;;18.50;16.40;;;;;;5028089;28;20041;-39
2023/09/01 13:00:32;;;;;;;6.03;2.20;;;18.70;17.20;;;;;;5024916;28;20103;-41